sensor_id;sensor_type;location;lat;lon;timestamp;P1;durP1;ratioP1;P2;durP2;ratioP2
55758;SDS011;41678;52.126;20.664;2023-06-19T00:01:43;11.35;;;5.93;;
55758;SDS011;41678;52.126;20.664;2023-06-19T00:07:03;10.02;;;5.75;;
55758;SDS011;41678;52.126;20.664;2023-06-19T00:12:23;12.93;;;6.00;;
55758;SDS011;41678;52.126;20.664;2023-06-19T00:17:43;8.77;;;5.57;;
55758;SDS011;41678;52.126;20.664;2023-06-19T00:23:02;11.40;;;5.70;;
55758;SDS011;41678;52.126;20.664;2023-06-19T00:28:22;13.60;;;5.88;;
55758;SDS011;41678;52.126;20.664;2023-06-19T00:33:42;11.38;;;6.03;;
55758;SDS011;41678;52.126;20.664;2023-06-19T00:39:02;10.88;;;5.78;;
55758;SDS011;41678;52.126;20.664;2023-06-19T00:44:22;9.30;;;5.72;;
55758;SDS011;41678;52.126;20.664;2023-06-19T00:49:42;14.68;;;6.03;;
55758;SDS011;41678;52.126;20.664;2023-06-19T00:55:02;9.18;;;5.18;;
55758;SDS011;41678;52.126;20.664;2023-06-19T01:05:43;12.48;;;6.20;;
55758;SDS011;41678;52.126;20.664;2023-06-19T01:11:08;10.43;;;6.40;;
55758;SDS011;41678;52.126;20.664;2023-06-19T01:16:31;9.45;;;5.57;;
55758;SDS011;41678;52.126;20.664;2023-06-19T01:21:52;9.93;;;6.20;;
55758;SDS011;41678;52.126;20.664;2023-06-19T01:27:11;10.63;;;5.72;;
55758;SDS011;41678;52.126;20.664;2023-06-19T01:32:36;11.52;;;6.07;;
55758;SDS011;41678;52.126;20.664;2023-06-19T01:43:26;10.18;;;5.82;;
55758;SDS011;41678;52.126;20.664;2023-06-19T01:48:48;10.65;;;6.18;;
55758;SDS011;41678;52.126;20.664;2023-06-19T01:54:08;11.88;;;6.55;;
55758;SDS011;41678;52.126;20.664;2023-06-19T01:59:27;10.77;;;6.28;;
55758;SDS011;41678;52.126;20.664;2023-06-19T02:04:47;10.98;;;6.80;;
55758;SDS011;41678;52.126;20.664;2023-06-19T02:10:06;11.85;;;6.35;;
55758;SDS011;41678;52.126;20.664;2023-06-19T02:15:27;14.18;;;6.30;;
55758;SDS011;41678;52.126;20.664;2023-06-19T02:20:47;9.95;;;6.07;;
55758;SDS011;41678;52.126;20.664;2023-06-19T02:26:08;12.18;;;6.53;;
55758;SDS011;41678;52.126;20.664;2023-06-19T02:31:28;13.00;;;6.65;;
55758;SDS011;41678;52.126;20.664;2023-06-19T02:36:47;10.50;;;7.00;;
55758;SDS011;41678;52.126;20.664;2023-06-19T02:42:07;11.35;;;6.32;;
55758;SDS011;41678;52.126;20.664;2023-06-19T02:47:26;12.38;;;7.05;;
55758;SDS011;41678;52.126;20.664;2023-06-19T02:52:46;11.95;;;6.45;;
55758;SDS011;41678;52.126;20.664;2023-06-19T02:58:05;11.70;;;7.38;;
55758;SDS011;41678;52.126;20.664;2023-06-19T03:03:25;12.13;;;7.28;;
55758;SDS011;41678;52.126;20.664;2023-06-19T03:08:44;13.95;;;7.90;;
55758;SDS011;41678;52.126;20.664;2023-06-19T03:14:03;13.52;;;7.80;;
55758;SDS011;41678;52.126;20.664;2023-06-19T03:19:27;10.88;;;7.15;;
55758;SDS011;41678;52.126;20.664;2023-06-19T03:24:46;11.75;;;7.35;;
55758;SDS011;41678;52.126;20.664;2023-06-19T03:30:13;17.00;;;8.05;;
55758;SDS011;41678;52.126;20.664;2023-06-19T03:35:34;14.82;;;7.55;;
55758;SDS011;41678;52.126;20.664;2023-06-19T03:40:53;14.30;;;8.15;;
55758;SDS011;41678;52.126;20.664;2023-06-19T03:46:14;13.23;;;8.20;;
55758;SDS011;41678;52.126;20.664;2023-06-19T03:51:33;13.90;;;8.55;;
55758;SDS011;41678;52.126;20.664;2023-06-19T03:56:54;17.30;;;8.77;;
55758;SDS011;41678;52.126;20.664;2023-06-19T04:02:15;15.18;;;9.95;;
55758;SDS011;41678;52.126;20.664;2023-06-19T04:07:36;15.90;;;9.77;;
55758;SDS011;41678;52.126;20.664;2023-06-19T04:12:56;16.42;;;9.30;;
55758;SDS011;41678;52.126;20.664;2023-06-19T04:18:15;14.15;;;8.40;;
55758;SDS011;41678;52.126;20.664;2023-06-19T04:23:35;18.55;;;10.13;;
55758;SDS011;41678;52.126;20.664;2023-06-19T04:28:56;19.53;;;10.47;;
55758;SDS011;41678;52.126;20.664;2023-06-19T04:34:16;15.32;;;10.00;;
55758;SDS011;41678;52.126;20.664;2023-06-19T04:39:40;15.82;;;9.50;;
55758;SDS011;41678;52.126;20.664;2023-06-19T04:44:59;19.73;;;11.43;;
55758;SDS011;41678;52.126;20.664;2023-06-19T04:50:19;16.63;;;11.02;;
55758;SDS011;41678;52.126;20.664;2023-06-19T04:55:40;17.00;;;11.53;;
55758;SDS011;41678;52.126;20.664;2023-06-19T05:00:59;21.00;;;12.60;;
55758;SDS011;41678;52.126;20.664;2023-06-19T05:06:19;16.45;;;10.80;;
55758;SDS011;41678;52.126;20.664;2023-06-19T05:11:39;20.88;;;10.57;;
55758;SDS011;41678;52.126;20.664;2023-06-19T05:16:59;17.85;;;10.43;;
55758;SDS011;41678;52.126;20.664;2023-06-19T05:22:19;14.68;;;9.95;;
55758;SDS011;41678;52.126;20.664;2023-06-19T05:27:41;17.67;;;10.73;;
55758;SDS011;41678;52.126;20.664;2023-06-19T05:33:00;19.80;;;11.13;;
55758;SDS011;41678;52.126;20.664;2023-06-19T05:38:20;18.88;;;10.18;;
55758;SDS011;41678;52.126;20.664;2023-06-19T05:43:40;19.23;;;9.73;;
55758;SDS011;41678;52.126;20.664;2023-06-19T05:48:59;16.05;;;10.18;;
55758;SDS011;41678;52.126;20.664;2023-06-19T05:54:19;16.40;;;10.30;;
55758;SDS011;41678;52.126;20.664;2023-06-19T05:59:39;17.20;;;9.73;;
55758;SDS011;41678;52.126;20.664;2023-06-19T06:04:58;18.33;;;9.93;;
55758;SDS011;41678;52.126;20.664;2023-06-19T06:10:19;24.33;;;9.80;;
55758;SDS011;41678;52.126;20.664;2023-06-19T06:15:42;17.55;;;9.05;;
55758;SDS011;41678;52.126;20.664;2023-06-19T06:21:02;16.90;;;9.18;;
55758;SDS011;41678;52.126;20.664;2023-06-19T06:26:22;14.98;;;8.52;;
55758;SDS011;41678;52.126;20.664;2023-06-19T06:31:41;14.50;;;7.65;;
55758;SDS011;41678;52.126;20.664;2023-06-19T06:37:00;15.35;;;7.03;;
55758;SDS011;41678;52.126;20.664;2023-06-19T06:42:20;14.77;;;6.00;;
55758;SDS011;41678;52.126;20.664;2023-06-19T06:47:40;15.00;;;6.30;;
55758;SDS011;41678;52.126;20.664;2023-06-19T06:53:00;9.35;;;5.50;;
55758;SDS011;41678;52.126;20.664;2023-06-19T06:58:20;8.95;;;4.68;;
55758;SDS011;41678;52.126;20.664;2023-06-19T07:03:39;8.52;;;4.80;;
55758;SDS011;41678;52.126;20.664;2023-06-19T07:08:59;8.82;;;5.05;;
55758;SDS011;41678;52.126;20.664;2023-06-19T07:14:19;14.65;;;5.53;;
55758;SDS011;41678;52.126;20.664;2023-06-19T07:19:38;7.28;;;4.53;;
55758;SDS011;41678;52.126;20.664;2023-06-19T07:24:58;9.52;;;5.68;;
55758;SDS011;41678;52.126;20.664;2023-06-19T07:30:17;9.20;;;4.75;;
55758;SDS011;41678;52.126;20.664;2023-06-19T07:35:37;8.90;;;5.18;;
55758;SDS011;41678;52.126;20.664;2023-06-19T07:40:56;8.95;;;4.55;;
55758;SDS011;41678;52.126;20.664;2023-06-19T07:46:16;11.10;;;4.68;;
55758;SDS011;41678;52.126;20.664;2023-06-19T07:51:36;8.73;;;5.03;;
55758;SDS011;41678;52.126;20.664;2023-06-19T07:56:56;8.70;;;5.10;;
55758;SDS011;41678;52.126;20.664;2023-06-19T08:02:16;8.48;;;5.10;;
55758;SDS011;41678;52.126;20.664;2023-06-19T08:07:36;11.82;;;4.72;;
55758;SDS011;41678;52.126;20.664;2023-06-19T08:12:55;10.05;;;4.88;;
55758;SDS011;41678;52.126;20.664;2023-06-19T08:18:15;8.95;;;4.30;;
55758;SDS011;41678;52.126;20.664;2023-06-19T08:23:34;7.57;;;4.45;;
55758;SDS011;41678;52.126;20.664;2023-06-19T08:28:54;16.27;;;5.10;;
55758;SDS011;41678;52.126;20.664;2023-06-19T08:34:14;8.43;;;4.95;;
55758;SDS011;41678;52.126;20.664;2023-06-19T08:39:33;10.40;;;4.50;;
55758;SDS011;41678;52.126;20.664;2023-06-19T08:44:57;7.55;;;4.10;;
55758;SDS011;41678;52.126;20.664;2023-06-19T08:50:17;8.13;;;4.22;;
55758;SDS011;41678;52.126;20.664;2023-06-19T08:55:37;7.20;;;3.92;;
55758;SDS011;41678;52.126;20.664;2023-06-19T09:00:57;11.60;;;5.00;;
55758;SDS011;41678;52.126;20.664;2023-06-19T09:11:37;8.45;;;4.10;;
55758;SDS011;41678;52.126;20.664;2023-06-19T09:17:03;7.90;;;4.13;;
55758;SDS011;41678;52.126;20.664;2023-06-19T09:22:24;10.07;;;4.20;;
55758;SDS011;41678;52.126;20.664;2023-06-19T09:27:44;8.50;;;4.23;;
55758;SDS011;41678;52.126;20.664;2023-06-19T09:33:06;8.05;;;4.30;;
55758;SDS011;41678;52.126;20.664;2023-06-19T09:38:27;11.73;;;4.38;;
55758;SDS011;41678;52.126;20.664;2023-06-19T09:43:48;9.95;;;3.95;;
55758;SDS011;41678;52.126;20.664;2023-06-19T09:49:10;7.82;;;4.05;;
55758;SDS011;41678;52.126;20.664;2023-06-19T09:54:32;7.68;;;4.55;;
55758;SDS011;41678;52.126;20.664;2023-06-19T09:59:53;9.55;;;4.75;;
55758;SDS011;41678;52.126;20.664;2023-06-19T10:05:15;7.82;;;4.25;;
55758;SDS011;41678;52.126;20.664;2023-06-19T10:10:35;7.32;;;3.95;;
55758;SDS011;41678;52.126;20.664;2023-06-19T10:21:19;7.05;;;4.15;;
55758;SDS011;41678;52.126;20.664;2023-06-19T10:26:39;11.90;;;4.07;;
55758;SDS011;41678;52.126;20.664;2023-06-19T10:31:59;7.03;;;4.03;;
55758;SDS011;41678;52.126;20.664;2023-06-19T10:37:20;7.10;;;4.47;;
55758;SDS011;41678;52.126;20.664;2023-06-19T10:42:51;7.05;;;4.22;;
55758;SDS011;41678;52.126;20.664;2023-06-19T10:48:11;8.45;;;4.35;;
55758;SDS011;41678;52.126;20.664;2023-06-19T10:53:31;8.25;;;4.15;;
55758;SDS011;41678;52.126;20.664;2023-06-19T10:58:59;6.50;;;3.67;;
55758;SDS011;41678;52.126;20.664;2023-06-19T11:04:21;7.25;;;4.05;;
55758;SDS011;41678;52.126;20.664;2023-06-19T11:09:43;6.50;;;3.35;;
55758;SDS011;41678;52.126;20.664;2023-06-19T11:15:03;8.90;;;4.07;;
55758;SDS011;41678;52.126;20.664;2023-06-19T11:20:24;8.50;;;3.33;;
55758;SDS011;41678;52.126;20.664;2023-06-19T11:25:45;8.02;;;3.72;;
55758;SDS011;41678;52.126;20.664;2023-06-19T11:31:05;7.20;;;3.90;;
55758;SDS011;41678;52.126;20.664;2023-06-19T11:36:24;6.60;;;3.63;;
55758;SDS011;41678;52.126;20.664;2023-06-19T11:41:44;6.40;;;3.50;;
55758;SDS011;41678;52.126;20.664;2023-06-19T11:47:04;8.27;;;4.23;;
55758;SDS011;41678;52.126;20.664;2023-06-19T11:52:24;6.70;;;3.60;;
55758;SDS011;41678;52.126;20.664;2023-06-19T11:57:44;7.03;;;3.70;;
55758;SDS011;41678;52.126;20.664;2023-06-19T12:03:16;10.03;;;3.57;;
55758;SDS011;41678;52.126;20.664;2023-06-19T12:08:36;8.02;;;2.97;;
55758;SDS011;41678;52.126;20.664;2023-06-19T12:13:57;10.30;;;3.67;;
55758;SDS011;41678;52.126;20.664;2023-06-19T12:19:19;7.57;;;3.97;;
55758;SDS011;41678;52.126;20.664;2023-06-19T12:24:40;9.70;;;3.42;;
55758;SDS011;41678;52.126;20.664;2023-06-19T12:30:00;6.63;;;3.85;;
55758;SDS011;41678;52.126;20.664;2023-06-19T12:35:20;7.13;;;3.50;;
55758;SDS011;41678;52.126;20.664;2023-06-19T12:40:41;6.72;;;3.22;;
55758;SDS011;41678;52.126;20.664;2023-06-19T12:46:01;7.67;;;3.20;;
55758;SDS011;41678;52.126;20.664;2023-06-19T12:51:21;7.03;;;3.40;;
55758;SDS011;41678;52.126;20.664;2023-06-19T12:56:41;10.95;;;3.40;;
55758;SDS011;41678;52.126;20.664;2023-06-19T13:02:00;11.90;;;3.33;;
55758;SDS011;41678;52.126;20.664;2023-06-19T13:07:21;9.85;;;3.75;;
55758;SDS011;41678;52.126;20.664;2023-06-19T13:12:40;11.55;;;3.03;;
55758;SDS011;41678;52.126;20.664;2023-06-19T13:18:00;7.17;;;3.00;;
55758;SDS011;41678;52.126;20.664;2023-06-19T13:23:23;5.97;;;3.00;;
55758;SDS011;41678;52.126;20.664;2023-06-19T13:28:42;5.35;;;2.63;;
55758;SDS011;41678;52.126;20.664;2023-06-19T13:34:02;6.45;;;3.28;;
55758;SDS011;41678;52.126;20.664;2023-06-19T13:39:22;7.20;;;3.53;;
55758;SDS011;41678;52.126;20.664;2023-06-19T13:44:41;7.35;;;3.15;;
55758;SDS011;41678;52.126;20.664;2023-06-19T13:50:01;6.53;;;3.42;;
55758;SDS011;41678;52.126;20.664;2023-06-19T13:55:21;8.10;;;3.35;;
55758;SDS011;41678;52.126;20.664;2023-06-19T14:00:42;8.05;;;3.38;;
55758;SDS011;41678;52.126;20.664;2023-06-19T14:06:01;6.07;;;3.53;;
55758;SDS011;41678;52.126;20.664;2023-06-19T14:11:22;7.17;;;3.87;;
55758;SDS011;41678;52.126;20.664;2023-06-19T14:16:54;9.70;;;3.78;;
55758;SDS011;41678;52.126;20.664;2023-06-19T14:22:13;7.72;;;3.60;;
55758;SDS011;41678;52.126;20.664;2023-06-19T14:27:33;10.00;;;3.63;;
55758;SDS011;41678;52.126;20.664;2023-06-19T14:32:53;6.78;;;3.60;;
55758;SDS011;41678;52.126;20.664;2023-06-19T14:38:13;7.97;;;4.03;;
55758;SDS011;41678;52.126;20.664;2023-06-19T14:43:33;8.85;;;3.92;;
55758;SDS011;41678;52.126;20.664;2023-06-19T14:48:54;7.78;;;3.55;;
55758;SDS011;41678;52.126;20.664;2023-06-19T14:54:14;7.00;;;3.85;;
55758;SDS011;41678;52.126;20.664;2023-06-19T14:59:36;7.75;;;4.30;;
55758;SDS011;41678;52.126;20.664;2023-06-19T15:04:55;6.78;;;4.18;;
55758;SDS011;41678;52.126;20.664;2023-06-19T15:10:15;9.82;;;4.88;;
55758;SDS011;41678;52.126;20.664;2023-06-19T15:15:34;6.95;;;3.88;;
55758;SDS011;41678;52.126;20.664;2023-06-19T15:20:54;10.45;;;4.15;;
55758;SDS011;41678;52.126;20.664;2023-06-19T15:26:14;6.70;;;3.90;;
55758;SDS011;41678;52.126;20.664;2023-06-19T15:31:34;7.53;;;4.47;;
55758;SDS011;41678;52.126;20.664;2023-06-19T15:36:54;7.35;;;3.88;;
55758;SDS011;41678;52.126;20.664;2023-06-19T15:42:14;7.00;;;4.03;;
55758;SDS011;41678;52.126;20.664;2023-06-19T15:47:34;6.43;;;3.63;;
55758;SDS011;41678;52.126;20.664;2023-06-19T15:52:54;7.97;;;4.00;;
55758;SDS011;41678;52.126;20.664;2023-06-19T15:58:13;7.38;;;4.13;;
55758;SDS011;41678;52.126;20.664;2023-06-19T16:03:33;10.82;;;3.83;;
55758;SDS011;41678;52.126;20.664;2023-06-19T16:08:52;9.27;;;4.53;;
55758;SDS011;41678;52.126;20.664;2023-06-19T16:14:15;6.40;;;3.90;;
55758;SDS011;41678;52.126;20.664;2023-06-19T16:19:35;7.43;;;4.43;;
55758;SDS011;41678;52.126;20.664;2023-06-19T16:24:55;7.13;;;4.07;;
55758;SDS011;41678;52.126;20.664;2023-06-19T16:30:33;8.40;;;4.43;;
55758;SDS011;41678;52.126;20.664;2023-06-19T16:35:57;7.10;;;3.75;;
55758;SDS011;41678;52.126;20.664;2023-06-19T16:41:59;7.15;;;3.53;;
55758;SDS011;41678;52.126;20.664;2023-06-19T16:47:19;7.18;;;3.63;;
55758;SDS011;41678;52.126;20.664;2023-06-19T16:52:38;9.60;;;4.13;;
55758;SDS011;41678;52.126;20.664;2023-06-19T16:57:58;6.95;;;3.38;;
55758;SDS011;41678;52.126;20.664;2023-06-19T17:03:18;12.47;;;3.47;;
55758;SDS011;41678;52.126;20.664;2023-06-19T17:08:39;6.53;;;2.88;;
55758;SDS011;41678;52.126;20.664;2023-06-19T17:13:59;7.93;;;3.60;;
55758;SDS011;41678;52.126;20.664;2023-06-19T17:19:18;6.47;;;3.33;;
55758;SDS011;41678;52.126;20.664;2023-06-19T17:24:37;6.95;;;3.20;;
55758;SDS011;41678;52.126;20.664;2023-06-19T17:29:59;8.27;;;3.55;;
55758;SDS011;41678;52.126;20.664;2023-06-19T17:35:20;10.45;;;3.30;;
55758;SDS011;41678;52.126;20.664;2023-06-19T17:40:40;8.80;;;2.95;;
55758;SDS011;41678;52.126;20.664;2023-06-19T17:46:00;8.57;;;3.13;;
55758;SDS011;41678;52.126;20.664;2023-06-19T17:51:20;7.67;;;3.30;;
55758;SDS011;41678;52.126;20.664;2023-06-19T17:56:40;8.30;;;3.23;;
55758;SDS011;41678;52.126;20.664;2023-06-19T18:01:59;8.48;;;3.30;;
55758;SDS011;41678;52.126;20.664;2023-06-19T18:07:18;12.90;;;3.75;;
55758;SDS011;41678;52.126;20.664;2023-06-19T18:12:38;7.32;;;3.38;;
55758;SDS011;41678;52.126;20.664;2023-06-19T18:17:58;9.67;;;3.20;;
55758;SDS011;41678;52.126;20.664;2023-06-19T18:23:17;8.77;;;3.72;;
55758;SDS011;41678;52.126;20.664;2023-06-19T18:28:37;10.20;;;3.33;;
55758;SDS011;41678;52.126;20.664;2023-06-19T18:33:57;10.57;;;3.70;;
55758;SDS011;41678;52.126;20.664;2023-06-19T18:39:16;8.05;;;3.45;;
55758;SDS011;41678;52.126;20.664;2023-06-19T18:44:36;13.57;;;3.30;;
55758;SDS011;41678;52.126;20.664;2023-06-19T18:49:55;9.25;;;3.72;;
55758;SDS011;41678;52.126;20.664;2023-06-19T18:55:16;9.07;;;3.28;;
55758;SDS011;41678;52.126;20.664;2023-06-19T19:00:35;9.48;;;3.53;;
55758;SDS011;41678;52.126;20.664;2023-06-19T19:05:59;8.45;;;3.78;;
55758;SDS011;41678;52.126;20.664;2023-06-19T19:11:19;10.77;;;4.35;;
55758;SDS011;41678;52.126;20.664;2023-06-19T19:16:38;14.80;;;3.78;;
55758;SDS011;41678;52.126;20.664;2023-06-19T19:21:58;9.25;;;3.97;;
55758;SDS011;41678;52.126;20.664;2023-06-19T19:27:17;8.25;;;4.63;;
55758;SDS011;41678;52.126;20.664;2023-06-19T19:32:40;20.60;;;5.22;;
55758;SDS011;41678;52.126;20.664;2023-06-19T19:37:59;13.75;;;4.88;;
55758;SDS011;41678;52.126;20.664;2023-06-19T19:43:19;19.07;;;5.67;;
55758;SDS011;41678;52.126;20.664;2023-06-19T19:48:39;13.98;;;5.53;;
55758;SDS011;41678;52.126;20.664;2023-06-19T19:54:16;16.23;;;5.85;;
55758;SDS011;41678;52.126;20.664;2023-06-19T19:59:36;12.63;;;6.18;;
55758;SDS011;41678;52.126;20.664;2023-06-19T20:04:56;15.40;;;6.35;;
55758;SDS011;41678;52.126;20.664;2023-06-19T20:10:15;12.40;;;5.63;;
55758;SDS011;41678;52.126;20.664;2023-06-19T20:15:36;9.88;;;5.57;;
55758;SDS011;41678;52.126;20.664;2023-06-19T20:20:57;12.32;;;6.35;;
55758;SDS011;41678;52.126;20.664;2023-06-19T20:26:17;12.43;;;5.97;;
55758;SDS011;41678;52.126;20.664;2023-06-19T20:31:36;13.77;;;6.80;;
55758;SDS011;41678;52.126;20.664;2023-06-19T20:36:56;15.25;;;7.82;;
55758;SDS011;41678;52.126;20.664;2023-06-19T20:42:16;19.88;;;8.20;;
55758;SDS011;41678;52.126;20.664;2023-06-19T20:47:36;19.05;;;9.05;;
55758;SDS011;41678;52.126;20.664;2023-06-19T20:52:56;18.92;;;9.40;;
55758;SDS011;41678;52.126;20.664;2023-06-19T20:58:15;20.80;;;10.70;;
55758;SDS011;41678;52.126;20.664;2023-06-19T21:03:35;16.70;;;10.20;;
55758;SDS011;41678;52.126;20.664;2023-06-19T21:08:55;18.17;;;10.20;;
55758;SDS011;41678;52.126;20.664;2023-06-19T21:14:15;15.18;;;9.70;;
55758;SDS011;41678;52.126;20.664;2023-06-19T21:19:34;15.68;;;8.52;;
55758;SDS011;41678;52.126;20.664;2023-06-19T21:24:53;21.58;;;9.70;;
55758;SDS011;41678;52.126;20.664;2023-06-19T21:30:13;18.80;;;9.38;;
55758;SDS011;41678;52.126;20.664;2023-06-19T21:35:33;20.25;;;9.60;;
55758;SDS011;41678;52.126;20.664;2023-06-19T21:40:52;15.98;;;9.30;;
55758;SDS011;41678;52.126;20.664;2023-06-19T21:52:10;15.23;;;8.60;;
55758;SDS011;41678;52.126;20.664;2023-06-19T21:57:29;14.43;;;8.52;;
55758;SDS011;41678;52.126;20.664;2023-06-19T22:02:49;14.30;;;7.63;;
55758;SDS011;41678;52.126;20.664;2023-06-19T22:08:09;16.02;;;8.75;;
55758;SDS011;41678;52.126;20.664;2023-06-19T22:13:30;13.90;;;7.55;;
55758;SDS011;41678;52.126;20.664;2023-06-19T22:18:51;14.38;;;7.80;;
55758;SDS011;41678;52.126;20.664;2023-06-19T22:24:10;15.18;;;8.13;;
55758;SDS011;41678;52.126;20.664;2023-06-19T22:29:29;14.57;;;7.90;;
55758;SDS011;41678;52.126;20.664;2023-06-19T22:34:49;18.52;;;7.75;;
55758;SDS011;41678;52.126;20.664;2023-06-19T22:40:09;14.23;;;8.32;;
55758;SDS011;41678;52.126;20.664;2023-06-19T22:45:29;11.52;;;7.85;;
55758;SDS011;41678;52.126;20.664;2023-06-19T22:50:49;17.05;;;8.25;;
55758;SDS011;41678;52.126;20.664;2023-06-19T22:56:08;14.27;;;8.27;;
55758;SDS011;41678;52.126;20.664;2023-06-19T23:01:28;17.52;;;8.05;;
55758;SDS011;41678;52.126;20.664;2023-06-19T23:06:49;16.88;;;8.20;;
55758;SDS011;41678;52.126;20.664;2023-06-19T23:12:10;15.07;;;8.15;;
55758;SDS011;41678;52.126;20.664;2023-06-19T23:17:30;17.60;;;8.50;;
55758;SDS011;41678;52.126;20.664;2023-06-19T23:22:49;14.25;;;8.98;;
55758;SDS011;41678;52.126;20.664;2023-06-19T23:28:08;13.65;;;8.93;;
55758;SDS011;41678;52.126;20.664;2023-06-19T23:33:42;13.50;;;8.90;;
55758;SDS011;41678;52.126;20.664;2023-06-19T23:39:02;16.67;;;8.50;;
55758;SDS011;41678;52.126;20.664;2023-06-19T23:44:22;17.33;;;8.60;;
55758;SDS011;41678;52.126;20.664;2023-06-19T23:49:42;15.23;;;8.88;;
55758;SDS011;41678;52.126;20.664;2023-06-19T23:55:02;14.95;;;8.55;;
